createdAt,value
2019-01-11T06:14:46.588Z,18.91
2019-01-11T06:15:27.112Z,18.99
2019-01-11T06:16:07.632Z,18.98
2019-01-11T06:16:48.159Z,19
2019-01-11T06:43:42.111Z,11.64
2019-01-11T06:44:22.639Z,9.75
2019-01-11T06:45:03.166Z,8.3
2019-01-11T06:45:43.688Z,7.05
2019-01-11T06:46:24.215Z,5.94
2019-01-11T06:47:04.733Z,5.09
2019-01-11T06:47:45.262Z,4.4
2019-01-11T06:48:25.788Z,3.84
2019-01-11T06:49:06.311Z,3.29
2019-01-11T06:49:46.832Z,2.84
2019-01-11T06:50:27.353Z,2.45
2019-01-11T06:51:07.878Z,2.16
2019-01-11T06:51:48.406Z,1.84
2019-01-11T06:52:28.927Z,1.68
2019-01-11T06:53:09.518Z,1.37
2019-01-11T06:53:50.037Z,1.23
2019-01-11T06:54:30.563Z,0.98
2019-01-11T06:55:11.084Z,0.93
2019-01-11T06:55:51.601Z,0.76
2019-01-11T06:56:32.114Z,0.58
2019-01-11T06:57:12.635Z,0.5
2019-01-11T06:57:53.153Z,0.44
2019-01-11T06:58:33.680Z,0.31
2019-01-11T06:59:14.200Z,0.17
2019-01-11T06:59:54.725Z,0.08
2019-01-11T07:00:35.247Z,0.11
2019-01-11T07:01:15.775Z,0.11
2019-01-11T07:01:56.304Z,0.03
2019-01-11T07:02:36.827Z,0.07
2019-01-11T07:03:17.343Z,-0.11
2019-01-11T07:03:57.871Z,-0.04
2019-01-11T07:04:38.395Z,-0.26
2019-01-11T07:05:18.919Z,-0.26
2019-01-11T07:05:59.443Z,-0.28
2019-01-11T07:06:39.968Z,-0.37
2019-01-11T07:07:20.484Z,-0.44
2019-01-11T07:08:01.011Z,-0.4
2019-01-11T07:08:41.529Z,-0.43
2019-01-11T07:09:22.054Z,-0.51
2019-01-11T07:10:02.583Z,-0.58
2019-01-11T07:10:43.112Z,-0.64
2019-01-11T07:11:23.640Z,-0.8
2019-01-11T07:12:04.163Z,-0.79
2019-01-11T07:12:44.680Z,-0.85
2019-01-11T07:13:25.200Z,-0.83
2019-01-11T07:14:05.723Z,-0.89
2019-01-11T07:14:46.242Z,-0.86
2019-01-11T07:15:26.764Z,-0.92
2019-01-11T07:16:07.287Z,-0.92
2019-01-11T07:16:47.805Z,-0.92
2019-01-11T07:17:28.513Z,-0.99
2019-01-11T07:18:09.155Z,-0.99
2019-01-11T07:18:49.674Z,-0.99
2019-01-11T07:19:30.244Z,-0.99
2019-01-11T07:20:10.807Z,-0.94
2019-01-11T07:20:51.384Z,-0.98
2019-01-11T07:21:31.913Z,-1.04
2019-01-11T07:22:12.429Z,-0.95
2019-01-11T07:22:52.953Z,-0.92
2019-01-11T07:23:33.480Z,-0.99
2019-01-11T07:24:13.994Z,-0.82
2019-01-11T07:24:54.517Z,-0.85
2019-01-11T07:25:35.038Z,-0.85
2019-01-11T07:26:15.563Z,-0.8
2019-01-11T07:26:56.073Z,-0.78
2019-01-11T07:27:36.599Z,-0.8
2019-01-11T07:28:17.125Z,-0.83
2019-01-11T07:28:57.643Z,-0.75
2019-01-11T07:29:38.167Z,-0.83
2019-01-11T07:30:18.685Z,-0.78
2019-01-11T07:30:59.208Z,-0.65
2019-01-11T07:31:39.725Z,-0.64
2019-01-11T07:32:20.247Z,-0.65
2019-01-11T07:33:00.777Z,-0.61
2019-01-11T07:33:41.296Z,-0.57
2019-01-11T07:34:21.813Z,-0.58
2019-01-11T07:35:02.347Z,-0.51
2019-01-11T07:35:42.873Z,-0.42
2019-01-11T07:36:23.394Z,-0.4
2019-01-11T07:37:03.911Z,-0.36
2019-01-11T07:37:44.438Z,-0.4
2019-01-11T07:38:24.962Z,-0.4
2019-01-11T07:39:05.483Z,-0.39
2019-01-11T07:39:45.999Z,-0.33
2019-01-11T07:40:26.530Z,-0.25
2019-01-11T07:41:07.046Z,-0.28
2019-01-11T07:41:47.572Z,-0.22
2019-01-11T07:42:28.090Z,-0.15
2019-01-11T07:43:08.609Z,-0.15
2019-01-11T07:43:49.129Z,-0.08
2019-01-11T07:44:29.649Z,-0.05
2019-01-11T07:45:10.170Z,0
2019-01-11T07:45:50.693Z,0.08
2019-01-11T07:46:31.220Z,0.08
2019-01-11T07:47:11.744Z,0.07
2019-01-11T07:47:52.274Z,0.17
2019-01-11T07:48:32.801Z,0.26
2019-01-11T07:49:13.324Z,0.36
2019-01-11T07:49:53.833Z,0.39
2019-01-11T07:50:34.357Z,0.47
2019-01-11T07:51:14.881Z,0.53
2019-01-11T07:51:55.399Z,0.68
2019-01-11T07:52:35.926Z,0.53
2019-01-11T07:53:16.448Z,0.68
2019-01-11T07:53:56.964Z,0.68
2019-01-11T07:54:37.485Z,0.66
2019-01-11T07:55:18.011Z,0.73
2019-01-11T07:55:58.533Z,0.86
2019-01-11T07:56:39.063Z,1.09
2019-01-11T07:57:19.580Z,1.2
2019-01-11T07:58:00.103Z,1.55
2019-01-11T07:58:40.627Z,2.03
2019-01-11T07:59:21.149Z,2.59
2019-01-11T08:00:01.690Z,3
2019-01-11T08:00:42.203Z,3.45
2019-01-11T08:01:22.735Z,3.69
2019-01-11T08:02:03.257Z,4.15
2019-01-11T08:02:43.780Z,4.24
2019-01-11T08:03:24.922Z,4.52
2019-01-11T08:04:04.827Z,4.82
2019-01-11T08:04:45.354Z,5.15
2019-01-11T08:05:25.878Z,5.51
2019-01-11T08:06:06.398Z,5.78
2019-01-11T08:06:46.927Z,6.03
2019-01-11T08:07:27.447Z,6.31
2019-01-11T08:08:07.979Z,6.58
2019-01-11T08:08:48.503Z,6.81
2019-01-11T08:09:29.033Z,6.97
2019-01-11T08:10:09.558Z,7.07
2019-01-11T08:10:50.070Z,7.21
2019-01-11T08:11:30.593Z,7.27
2019-01-11T08:12:11.117Z,7.21
2019-01-11T08:12:51.644Z,7.3
2019-01-11T08:13:32.182Z,7.27
2019-01-11T08:14:12.692Z,7.31
2019-01-11T08:14:53.201Z,7.6
2019-01-11T08:15:33.723Z,7.75
2019-01-11T08:16:14.235Z,8
2019-01-11T08:16:54.755Z,8.01
2019-01-11T08:17:35.283Z,7.98
2019-01-11T08:18:15.813Z,7.98
2019-01-11T08:18:56.355Z,7.8
2019-01-11T08:19:36.885Z,7.67
2019-01-11T08:20:17.411Z,7.82
2019-01-11T08:20:57.953Z,8.05
2019-01-11T08:21:38.460Z,8.26
2019-01-11T08:22:18.974Z,8.44
2019-01-11T08:22:59.512Z,8.56
2019-01-11T08:23:40.020Z,8.63
2019-01-11T08:24:20.544Z,8.73
2019-01-11T08:25:01.067Z,8.53
2019-01-11T08:25:41.584Z,8.4
2019-01-11T08:26:22.107Z,8.12
2019-01-11T08:27:02.630Z,7.69
2019-01-11T08:27:43.150Z,7.16
2019-01-11T08:28:23.671Z,6.52
2019-01-11T08:29:04.197Z,6.03
2019-01-11T08:29:44.726Z,5.57
2019-01-11T08:30:25.250Z,5.13
2019-01-11T08:31:05.772Z,5
2019-01-11T08:31:46.291Z,4.72
2019-01-11T08:32:26.811Z,4.45
2019-01-11T08:33:07.333Z,4.27
2019-01-11T08:33:47.861Z,4.12
2019-01-11T08:34:28.384Z,3.88
2019-01-11T08:35:08.902Z,3.65
2019-01-11T08:35:49.435Z,3.54
2019-01-11T08:36:29.957Z,3.4
2019-01-11T08:37:10.479Z,3.31
2019-01-11T08:37:51.003Z,3.14
2019-01-11T08:38:31.543Z,3.1
2019-01-11T08:39:12.060Z,2.9
2019-01-11T08:39:52.579Z,2.89
2019-01-11T08:40:33.104Z,2.77
2019-01-11T08:41:13.631Z,2.71
2019-01-11T08:41:54.152Z,2.69
2019-01-11T08:42:34.679Z,2.67
2019-01-11T08:43:15.201Z,2.63
2019-01-11T08:43:55.726Z,2.57
2019-01-11T08:44:36.242Z,2.48
2019-01-11T08:45:16.768Z,2.41
2019-01-11T08:45:57.297Z,2.52
2019-01-11T08:46:37.811Z,2.36
2019-01-11T08:47:18.334Z,2.39
2019-01-11T08:47:58.853Z,2.39
2019-01-11T08:48:39.382Z,2.34
2019-01-11T08:49:19.903Z,2.3
2019-01-11T08:50:00.425Z,2.3
2019-01-11T08:50:40.949Z,2.24
2019-01-11T08:51:21.474Z,2.28
2019-01-11T08:52:02.002Z,2.18
2019-01-11T08:52:42.522Z,2.28
2019-01-11T08:53:23.042Z,2.2
2019-01-11T08:54:03.561Z,2.18
2019-01-11T08:54:44.085Z,2.2
2019-01-11T08:55:24.610Z,2.23
2019-01-11T08:56:08.373Z,2.17
2019-01-11T08:56:45.657Z,2.16
2019-01-11T08:57:26.182Z,2.18
2019-01-11T08:58:06.695Z,2.09
2019-01-11T08:58:47.219Z,2.05
2019-01-11T08:59:27.755Z,2.05
2019-01-11T09:00:08.273Z,2.05
2019-01-11T09:00:48.786Z,2.1
2019-01-11T09:01:29.309Z,2.1
2019-01-11T09:02:09.830Z,2.07
2019-01-11T09:02:50.394Z,2.16
2019-01-11T09:03:30.879Z,2.03
2019-01-11T09:04:11.417Z,2.07
2019-01-11T09:04:51.944Z,2.02
2019-01-11T09:05:32.461Z,2.03
2019-01-11T09:06:12.982Z,1.99
2019-01-11T09:06:53.499Z,1.86
2019-01-11T09:07:34.016Z,1.8
2019-01-11T09:08:14.538Z,1.8
2019-01-11T09:08:55.056Z,1.87
2019-01-11T09:09:35.582Z,1.86
2019-01-11T09:10:22.350Z,1.9
2019-01-11T09:10:56.630Z,1.91
2019-01-11T09:11:37.155Z,2.07
2019-01-11T09:12:17.674Z,2
2019-01-11T09:12:58.199Z,2.09
2019-01-11T09:13:38.719Z,2.09
2019-01-11T09:14:19.239Z,2.07
2019-01-11T09:14:59.768Z,2.05
2019-01-11T09:15:40.299Z,1.91
2019-01-11T09:16:20.958Z,1.88
2019-01-11T09:17:01.339Z,1.99
2019-01-11T09:17:41.869Z,2.06
2019-01-11T09:18:22.386Z,2.12
2019-01-11T09:19:02.908Z,2.09
2019-01-11T09:19:43.427Z,2.18
2019-01-11T09:20:23.947Z,2.25
2019-01-11T09:21:09.292Z,2.36
2019-01-11T09:21:44.986Z,2.41
2019-01-11T09:22:25.507Z,2.43
2019-01-11T09:23:06.039Z,2.43
2019-01-11T09:23:46.557Z,2.42
2019-01-11T09:24:27.075Z,2.48
2019-01-11T09:25:07.601Z,2.45
2019-01-11T09:25:48.125Z,2.54
2019-01-11T09:26:28.645Z,2.49
2019-01-11T09:27:09.167Z,2.43
2019-01-11T09:27:49.687Z,2.41
2019-01-11T09:28:30.207Z,2.52
2019-01-11T09:29:10.736Z,2.56
2019-01-11T09:29:51.258Z,2.63
2019-01-11T09:30:31.785Z,2.6
2019-01-11T09:31:12.313Z,2.72
2019-01-11T09:31:52.842Z,2.79
2019-01-11T09:32:33.371Z,2.77
2019-01-11T09:33:20.070Z,2.92
2019-01-11T09:33:54.412Z,2.95
2019-01-11T09:34:34.932Z,2.92
2019-01-11T09:35:15.452Z,2.95
2019-01-11T09:35:55.982Z,2.99
2019-01-11T09:36:36.509Z,2.96
2019-01-11T09:37:17.032Z,2.95
2019-01-11T09:37:57.562Z,2.92
2019-01-11T09:38:38.087Z,2.92
2019-01-11T09:39:18.616Z,2.87
2019-01-11T09:39:59.136Z,2.84
2019-01-11T09:40:39.665Z,2.87
2019-01-11T09:41:20.220Z,2.84
2019-01-11T09:42:00.915Z,2.89
2019-01-11T09:42:41.972Z,2.87
2019-01-11T09:43:23.530Z,2.89
2019-01-11T09:44:04.056Z,2.89
2019-01-11T09:44:44.584Z,2.85
2019-01-11T09:45:25.114Z,2.84
2019-01-11T09:46:05.634Z,2.74
2019-01-11T09:46:46.157Z,2.75
2019-01-11T09:47:26.684Z,2.71
2019-01-11T09:48:07.210Z,2.72
2019-01-11T09:48:47.731Z,2.66
2019-01-11T09:49:28.260Z,2.63
2019-01-11T09:50:08.784Z,2.71
2019-01-11T09:50:49.298Z,2.71
2019-01-11T09:51:29.817Z,2.87
2019-01-11T09:52:10.343Z,2.92
2019-01-11T09:52:50.876Z,2.93
2019-01-11T09:53:31.396Z,3.02
2019-01-11T09:54:11.917Z,2.92
2019-01-11T09:54:52.443Z,2.87
2019-01-11T09:55:32.973Z,2.9
2019-01-11T09:56:13.503Z,2.9
2019-01-11T09:56:54.152Z,2.95
2019-01-11T09:57:34.674Z,2.95
2019-01-11T09:58:15.185Z,2.87
2019-01-11T09:58:55.726Z,2.96
2019-01-11T09:59:36.259Z,2.92
2019-01-11T10:00:16.781Z,2.92
2019-01-11T10:00:59.172Z,2.96
2019-01-11T10:01:37.870Z,2.9
2019-01-11T10:02:18.387Z,2.87
2019-01-11T10:02:58.947Z,2.92
2019-01-11T10:03:39.478Z,2.87
2019-01-11T10:04:20.009Z,2.92
2019-01-11T10:05:00.531Z,2.89
2019-01-11T10:05:41.059Z,2.93
2019-01-11T10:06:21.707Z,2.9
2019-01-11T10:07:02.403Z,2.84
2019-01-11T10:07:42.935Z,2.71
2019-01-11T10:08:23.461Z,2.77
2019-01-11T10:09:03.979Z,2.84
2019-01-11T10:09:44.502Z,2.82
2019-01-11T10:10:25.028Z,2.93
2019-01-11T10:11:05.548Z,2.85
2019-01-11T10:11:46.078Z,2.87
2019-01-11T10:12:26.603Z,2.82
2019-01-11T10:13:07.132Z,2.95
2019-01-11T10:13:47.678Z,3
2019-01-11T10:14:28.208Z,3.06
2019-01-11T10:15:08.725Z,2.92
2019-01-11T10:15:49.261Z,2.97
2019-01-11T10:16:29.781Z,3.05
2019-01-11T10:17:10.302Z,3.06
2019-01-11T10:17:50.824Z,3.06
2019-01-11T10:18:31.389Z,3.08
2019-01-11T10:19:11.926Z,3.2
2019-01-11T10:19:52.451Z,3.06
2019-01-11T10:20:32.971Z,3.15
2019-01-11T10:21:13.503Z,3.28
2019-01-11T10:21:54.037Z,3.24
2019-01-11T10:22:34.557Z,3.24
2019-01-11T10:23:15.074Z,3.13
2019-01-11T10:23:55.596Z,3.14
2019-01-11T10:24:36.119Z,3.15
2019-01-11T10:25:16.636Z,3.11
2019-01-11T10:25:57.161Z,3.2
2019-01-11T10:26:37.685Z,3.2
2019-01-11T10:27:18.217Z,3.26
2019-01-11T10:27:58.744Z,3.23
2019-01-11T10:28:39.260Z,3.13
2019-01-11T10:29:19.862Z,3.08
2019-01-11T10:30:00.519Z,3.1
2019-01-11T10:30:41.049Z,2.93
2019-01-11T10:31:21.583Z,2.93
2019-01-11T10:32:02.113Z,2.99
2019-01-11T10:32:42.664Z,3.13
2019-01-11T10:33:23.194Z,3.05
2019-01-11T10:34:03.717Z,3.05
2019-01-11T10:34:44.246Z,2.95
2019-01-11T10:35:24.771Z,3.13
2019-01-11T10:36:05.295Z,3.11
2019-01-11T10:36:45.824Z,3.13
2019-01-11T10:37:26.377Z,3.11
2019-01-11T10:38:06.902Z,3.13
2019-01-11T10:38:47.425Z,3.14
2019-01-11T10:39:27.945Z,3.1
2019-01-11T10:40:08.534Z,3.05
2019-01-11T10:40:49.078Z,2.97
2019-01-11T10:41:29.596Z,2.97
2019-01-11T10:42:10.126Z,2.84
2019-01-11T10:42:50.641Z,2.81
2019-01-11T10:43:31.167Z,2.79
2019-01-11T10:44:11.691Z,2.87
2019-01-11T10:44:52.206Z,2.97
2019-01-11T10:45:32.736Z,2.97
2019-01-11T10:46:13.247Z,2.95
2019-01-11T10:46:53.773Z,3.05
2019-01-11T10:47:34.316Z,3.03
2019-01-11T10:48:14.840Z,3.06
2019-01-11T10:48:55.363Z,3.14
2019-01-11T10:49:35.925Z,3.23
2019-01-11T10:50:16.576Z,3.45
2019-01-11T10:50:57.084Z,3.48
2019-01-11T10:51:37.606Z,3.55
2019-01-11T10:52:18.118Z,3.68
2019-01-11T10:52:58.639Z,3.75
2019-01-11T10:53:39.177Z,3.83
2019-01-11T10:54:19.718Z,3.87
2019-01-11T10:55:00.238Z,3.84
2019-01-11T10:55:40.759Z,3.88
2019-01-11T10:56:21.280Z,3.86
2019-01-11T10:57:01.806Z,3.9
2019-01-11T10:57:42.332Z,4.02
2019-01-11T10:58:22.857Z,3.94
2019-01-11T10:59:03.370Z,3.79
2019-01-11T10:59:43.900Z,3.73
2019-01-11T11:00:24.409Z,3.52
2019-01-11T11:01:04.944Z,3.48
2019-01-11T11:01:45.472Z,3.32
2019-01-11T11:02:25.992Z,3.21
2019-01-11T11:03:06.537Z,3.29
2019-01-11T11:03:47.062Z,3.29
2019-01-11T11:04:27.592Z,3.26
2019-01-11T11:05:08.104Z,3.23
2019-01-11T11:05:48.636Z,3.26
2019-01-11T11:06:29.165Z,3.24
2019-01-11T11:07:09.687Z,3.32
2019-01-11T11:07:50.210Z,3.4
2019-01-11T11:08:30.746Z,3.26
2019-01-11T11:09:11.267Z,3.2
2019-01-11T11:09:51.794Z,3.08
2019-01-11T11:10:32.312Z,2.96
2019-01-11T11:11:16.538Z,2.87
2019-01-11T11:11:53.430Z,2.84
2019-01-11T11:12:34.005Z,2.81
2019-01-11T11:13:14.524Z,2.81
2019-01-11T11:13:55.041Z,2.81
2019-01-11T11:14:35.569Z,2.82
2019-01-11T11:15:16.075Z,2.95
2019-01-11T11:15:56.604Z,3.11
2019-01-11T11:16:37.148Z,3.28
2019-01-11T11:17:17.702Z,3.4
2019-01-11T11:17:58.253Z,3.57
2019-01-11T11:18:38.823Z,3.45
2019-01-11T11:19:19.366Z,3.45
2019-01-11T11:19:59.943Z,3.26
2019-01-11T11:20:40.632Z,3.26
2019-01-11T11:21:21.157Z,3.32
2019-01-11T11:22:01.695Z,3.4
2019-01-11T11:22:42.258Z,3.43
2019-01-11T11:23:23.174Z,3.39
2019-01-11T11:24:04.127Z,3.52
2019-01-11T11:24:44.656Z,3.5
2019-01-11T11:25:25.180Z,3.57
2019-01-11T11:26:05.711Z,3.43
2019-01-11T11:26:46.234Z,3.21
2019-01-11T11:27:26.758Z,3.15
2019-01-11T11:28:07.289Z,3.11
2019-01-11T11:28:47.806Z,2.93
2019-01-11T11:29:28.336Z,2.89
2019-01-11T11:30:08.866Z,2.82
2019-01-11T11:30:50.968Z,2.79
2019-01-11T11:31:29.911Z,2.81
2019-01-11T11:32:10.421Z,2.77
2019-01-11T11:32:50.950Z,2.81
2019-01-11T11:33:31.482Z,2.85
2019-01-11T11:34:11.998Z,2.84
2019-01-11T11:34:52.526Z,2.89
2019-01-11T11:35:33.048Z,2.93
2019-01-11T11:36:13.573Z,2.95
2019-01-11T11:36:54.099Z,2.92
2019-01-11T11:37:34.627Z,2.92
2019-01-11T11:38:15.149Z,2.84
2019-01-11T11:38:55.680Z,2.84
2019-01-11T11:39:36.212Z,2.81
2019-01-11T11:40:16.721Z,2.72
2019-01-11T11:40:57.249Z,2.77
2019-01-11T11:41:37.754Z,2.67
2019-01-11T11:42:18.275Z,2.64
2019-01-11T11:42:58.798Z,2.77
2019-01-11T11:43:39.326Z,2.84
2019-01-11T11:44:19.840Z,2.82
2019-01-11T11:45:00.363Z,2.95
2019-01-11T11:45:40.887Z,2.96
2019-01-11T11:46:21.410Z,2.84
2019-01-11T11:47:01.936Z,2.84
2019-01-11T11:47:42.454Z,2.93
2019-01-11T11:48:22.986Z,2.95
2019-01-11T11:49:03.557Z,2.96
2019-01-11T11:49:44.128Z,2.95
2019-01-11T11:50:24.654Z,2.93
2019-01-11T11:51:05.173Z,2.92
2019-01-11T11:51:45.694Z,3.05
2019-01-11T11:52:26.250Z,3.06
2019-01-11T11:53:06.775Z,3.03
2019-01-11T11:53:47.345Z,3.08
2019-01-11T11:54:27.873Z,3.11
2019-01-11T11:55:08.400Z,3.28
2019-01-11T11:55:48.926Z,3.31
2019-01-11T11:56:29.448Z,3.31
2019-01-11T11:57:09.974Z,3.23
2019-01-11T11:57:50.496Z,3.17
2019-01-11T11:58:31.015Z,3.15
2019-01-11T11:59:18.097Z,3.18
2019-01-11T11:59:58.621Z,3.24
2019-01-11T12:00:39.143Z,3.05
2019-01-11T12:01:19.675Z,3.02
2019-01-11T12:02:00.202Z,2.95
2019-01-11T12:02:40.730Z,2.99
2019-01-11T12:03:21.252Z,3.05
2019-01-11T12:04:01.777Z,3.06
2019-01-11T12:04:42.298Z,3.17
2019-01-11T12:05:22.825Z,3.13
2019-01-11T12:06:03.348Z,3.11
2019-01-11T12:06:43.870Z,3.08
2019-01-11T12:07:24.402Z,2.93
2019-01-11T12:08:04.928Z,2.9
2019-01-11T12:08:45.449Z,2.85
2019-01-11T12:09:25.976Z,2.79
2019-01-11T12:10:06.493Z,2.87
2019-01-11T12:10:47.025Z,3
2019-01-11T12:11:27.553Z,3.08
2019-01-11T12:12:08.100Z,3.11
2019-01-11T12:12:48.618Z,3.08
2019-01-11T12:13:29.143Z,3.2
2019-01-11T12:14:09.673Z,3.24
2019-01-11T12:14:50.207Z,3.29
2019-01-11T12:15:30.731Z,3.36
2019-01-11T12:16:11.255Z,3.47
2019-01-11T12:16:51.780Z,3.39
2019-01-11T12:17:32.309Z,3.36
2019-01-11T12:18:12.854Z,3.48
2019-01-11T12:18:53.390Z,3.35
2019-01-11T12:19:33.913Z,3.39
2019-01-11T12:20:14.442Z,3.47
2019-01-11T12:20:54.962Z,3.4
2019-01-11T12:21:35.488Z,3.47
2019-01-11T12:22:16.011Z,3.57
2019-01-11T12:22:56.539Z,3.54
2019-01-11T12:23:37.084Z,3.43
2019-01-11T12:24:17.610Z,3.24
2019-01-11T12:24:58.135Z,3.28
2019-01-11T12:25:38.657Z,3.17
2019-01-11T12:26:19.187Z,3.13
2019-01-11T12:26:59.715Z,3.1
2019-01-11T12:27:40.235Z,2.97
2019-01-11T12:28:20.753Z,2.82
2019-01-11T12:29:01.275Z,2.72
2019-01-11T12:29:41.805Z,2.67
2019-01-11T12:30:22.332Z,2.66
2019-01-11T12:31:02.863Z,2.54
2019-01-11T12:31:43.387Z,2.56
2019-01-11T12:32:23.906Z,2.53
2019-01-11T12:33:04.435Z,2.45
2019-01-11T12:33:44.957Z,2.46
2019-01-11T12:34:25.478Z,2.41
2019-01-11T12:35:06.006Z,2.42
2019-01-11T12:35:46.527Z,2.39
2019-01-11T12:36:27.060Z,2.39
2019-01-11T12:37:07.583Z,2.34
2019-01-11T12:37:48.115Z,2.21
2019-01-11T12:38:28.630Z,2.23
2019-01-11T12:39:09.156Z,2.14
2019-01-11T12:39:49.687Z,2.03
2019-01-11T12:40:30.212Z,2
2019-01-11T12:41:10.747Z,2.07
2019-01-11T12:41:51.260Z,1.98
2019-01-11T12:42:31.789Z,2.05
2019-01-11T12:43:12.318Z,2.09
2019-01-11T12:43:52.839Z,2.14
2019-01-11T12:44:33.362Z,2.14
2019-01-11T12:45:13.895Z,2.16
2019-01-11T12:45:54.420Z,2.14
2019-01-11T12:46:34.947Z,2.14
2019-01-11T12:47:15.471Z,2.02
2019-01-11T12:47:55.996Z,1.87
2019-01-11T12:48:36.518Z,1.88
2019-01-11T12:49:17.052Z,2.07
2019-01-11T12:49:57.580Z,2.02
2019-01-11T12:50:38.102Z,2.14
2019-01-11T12:51:18.627Z,2.09
2019-01-11T12:51:59.149Z,2.17
2019-01-11T12:52:39.671Z,2.14
2019-01-11T12:53:20.194Z,2.16
2019-01-11T12:54:00.723Z,2.12
2019-01-11T12:54:41.256Z,2.07
2019-01-11T12:55:21.781Z,2.14
2019-01-11T12:56:02.308Z,2.07
2019-01-11T12:56:44.042Z,2.07
2019-01-11T12:57:24.577Z,2.05
2019-01-11T12:58:05.115Z,2.09
2019-01-11T12:58:45.646Z,2.14
2019-01-11T12:59:26.179Z,2.16
2019-01-11T13:00:06.695Z,2.21
2019-01-11T13:00:47.217Z,2.14
2019-01-11T13:01:27.739Z,2.17
2019-01-11T13:02:08.263Z,2.18
2019-01-11T13:02:48.786Z,2.14
2019-01-11T13:03:29.321Z,2.14
2019-01-11T13:04:09.849Z,2.12
2019-01-11T13:04:50.369Z,2.2
2019-01-11T13:05:30.899Z,2.14
2019-01-11T13:06:11.433Z,2.14
2019-01-11T13:06:51.956Z,2.18
2019-01-11T13:07:32.493Z,2.17
2019-01-11T13:08:13.018Z,2.2
2019-01-11T13:08:53.548Z,2.2
2019-01-11T13:09:34.075Z,2.21
2019-01-11T13:10:14.601Z,2.23
2019-01-11T13:10:55.141Z,2.3
2019-01-11T13:11:35.676Z,2.23
2019-01-11T13:12:16.205Z,2.2
2019-01-11T13:12:56.737Z,2.3
2019-01-11T13:13:37.268Z,2.27
2019-01-11T13:14:17.799Z,2.34
2019-01-11T13:14:58.328Z,2.38
2019-01-11T13:15:38.863Z,2.38
2019-01-11T13:16:19.394Z,2.31
2019-01-11T13:16:59.922Z,2.28
2019-01-11T13:17:40.452Z,2.17
2019-01-11T13:18:20.976Z,2.21
2019-01-11T13:19:01.512Z,2.12
2019-01-11T13:19:42.026Z,2.07
2019-01-11T13:20:22.550Z,2.14
2019-01-11T13:21:03.077Z,2.06
2019-01-11T13:21:43.612Z,2.06
2019-01-11T13:22:24.150Z,2
2019-01-11T13:23:04.672Z,1.88
2019-01-11T13:23:45.206Z,2.06
2019-01-11T13:24:25.729Z,2.05
2019-01-11T13:25:06.253Z,2.03
2019-01-11T13:25:46.795Z,1.88
2019-01-11T13:26:27.320Z,1.87
2019-01-11T13:27:07.847Z,1.93
2019-01-11T13:27:48.382Z,1.99
2019-01-11T13:28:28.916Z,2.06
2019-01-11T13:29:09.463Z,2.16
2019-01-11T13:29:50.015Z,2.14
2019-01-11T13:30:30.534Z,2.2
2019-01-11T13:31:11.056Z,2.14
2019-01-11T13:31:51.582Z,2.09
2019-01-11T13:32:32.109Z,1.99
2019-01-11T13:33:12.651Z,1.88
2019-01-11T13:33:53.183Z,1.86
2019-01-11T13:34:33.708Z,1.77
2019-01-11T13:35:14.243Z,1.8
2019-01-11T13:35:54.767Z,1.8
2019-01-11T13:36:35.342Z,1.68
2019-01-11T13:37:15.839Z,1.72
2019-01-11T13:37:56.380Z,1.63
2019-01-11T13:38:36.911Z,1.6
2019-01-11T13:39:17.435Z,1.52
2019-01-11T13:39:57.968Z,1.51
2019-01-11T13:40:38.546Z,1.45
2019-01-11T13:41:19.087Z,1.41
2019-01-11T13:41:59.645Z,1.41
2019-01-11T13:42:40.211Z,1.33
2019-01-11T13:43:20.739Z,1.27
2019-01-11T13:44:01.288Z,1.37
2019-01-11T13:44:41.892Z,1.4
2019-01-11T13:45:22.601Z,1.29
2019-01-11T13:46:03.006Z,1.29
2019-01-11T13:46:43.578Z,1.27
2019-01-11T13:47:24.151Z,1.16
2019-01-11T13:48:04.694Z,1.09
2019-01-11T13:48:45.252Z,1.05
2019-01-11T13:49:25.791Z,1.09
2019-01-11T13:50:06.310Z,1.02
2019-01-11T13:50:46.852Z,1.11
2019-01-11T13:51:27.414Z,1.14
2019-01-11T13:52:07.952Z,1.23
2019-01-11T13:52:48.480Z,1.14
2019-01-11T13:53:29.015Z,1.16
2019-01-11T13:54:09.542Z,1.2
2019-01-11T13:54:50.095Z,1.26
2019-01-11T13:55:30.643Z,1.2
2019-01-11T13:56:11.169Z,1.24
2019-01-11T13:56:51.703Z,1.18
2019-01-11T13:57:32.251Z,1.22
2019-01-11T13:58:12.800Z,1.29
2019-01-11T13:58:53.327Z,1.23
2019-01-11T13:59:33.855Z,1.23
2019-01-11T14:00:14.704Z,1.29
2019-01-11T14:00:54.931Z,1.4
2019-01-11T14:01:35.474Z,1.29
2019-01-11T14:02:15.997Z,1.14
2019-01-11T14:02:56.575Z,1.11
2019-01-11T14:03:37.101Z,0.94
2019-01-11T14:04:17.629Z,1.02
2019-01-11T14:04:58.175Z,1.02
2019-01-11T14:05:38.718Z,1.05
2019-01-11T14:06:19.264Z,0.98
2019-01-11T14:06:59.781Z,1.05
2019-01-11T14:07:40.305Z,0.97
2019-01-11T14:08:20.849Z,1
2019-01-11T14:09:01.399Z,1.02
2019-01-11T14:09:41.957Z,1.04
2019-01-11T14:10:22.492Z,1.02
2019-01-11T14:11:03.011Z,1.04
2019-01-11T14:11:43.556Z,1
2019-01-11T14:12:24.074Z,0.97
2019-01-11T14:13:04.629Z,0.97
2019-01-11T14:13:45.148Z,0.93
2019-01-11T14:14:25.670Z,0.96
2019-01-11T14:15:06.225Z,0.9
2019-01-11T14:15:46.777Z,0.96
2019-01-11T14:19:00.802Z,0.9
2019-01-11T14:19:41.326Z,0.94
2019-01-11T14:20:21.858Z,1.06
2019-01-11T14:21:02.392Z,0.98
2019-01-11T14:21:43.098Z,1
2019-01-11T14:22:23.636Z,1.02
2019-01-11T14:23:04.187Z,1.04
2019-01-11T14:23:44.712Z,1
2019-01-11T14:24:25.247Z,0.97
2019-01-11T14:25:05.787Z,0.97
2019-01-11T14:25:46.336Z,0.98
2019-01-11T14:26:26.881Z,0.96
2019-01-11T14:27:07.411Z,0.91
2019-01-11T14:27:47.941Z,0.9
2019-01-11T14:28:28.464Z,0.87
2019-01-11T14:29:09.002Z,0.83
2019-01-11T14:29:49.529Z,0.8
2019-01-11T14:30:30.062Z,0.83
2019-01-11T14:31:10.604Z,0.7
2019-01-11T14:31:51.143Z,0.73
2019-01-11T14:32:31.681Z,0.78
2019-01-11T14:33:12.202Z,0.7
2019-01-11T14:33:52.742Z,0.65
2019-01-11T14:34:33.262Z,0.65
2019-01-11T14:35:13.788Z,0.61
2019-01-11T14:35:54.309Z,0.58
2019-01-11T14:36:34.826Z,0.55
2019-01-11T14:37:15.351Z,0.51
2019-01-11T14:37:55.889Z,0.5
2019-01-11T14:38:36.424Z,0.44
2019-01-11T14:39:16.961Z,0.42
2019-01-11T14:39:57.471Z,0.44
2019-01-11T14:40:38.037Z,0.42
2019-01-11T14:41:18.569Z,0.41
2019-01-11T14:41:59.101Z,0.41
2019-01-11T14:42:39.649Z,0.35
2019-01-11T14:43:20.190Z,0.33
2019-01-11T14:44:00.701Z,0.42
2019-01-11T14:44:41.227Z,0.28
2019-01-11T14:45:21.771Z,0.23
2019-01-11T14:46:02.308Z,0.2
2019-01-11T14:46:42.850Z,0.18
2019-01-11T14:47:23.471Z,0.21
2019-01-11T14:48:04.084Z,0.13
2019-01-11T14:48:45.072Z,0.14
2019-01-11T14:49:25.944Z,0.04
2019-01-11T14:50:07.198Z,0.04
2019-01-11T14:50:48.330Z,0.07
2019-01-11T14:51:29.259Z,0.07
2019-01-11T14:52:10.283Z,0.07
2019-01-11T14:52:51.818Z,0
2019-01-11T14:53:32.462Z,0.02
2019-01-11T14:54:13.117Z,-0.01
2019-01-11T14:54:53.703Z,-0.01
2019-01-11T14:55:34.261Z,0
2019-01-11T14:56:14.809Z,0.04
2019-01-11T14:56:55.603Z,0.04
2019-01-11T14:57:36.134Z,0.14
2019-01-11T14:58:16.662Z,0.13
2019-01-11T14:58:57.190Z,0.11
2019-01-11T14:59:37.716Z,0.18
2019-01-11T15:00:18.233Z,0.17
2019-01-11T15:00:58.755Z,0.18
2019-01-11T15:01:39.692Z,0.07
2019-01-11T15:02:19.797Z,0.04
2019-01-11T15:03:00.316Z,0.08
2019-01-11T15:03:40.838Z,0.07
2019-01-11T15:04:21.368Z,0.04
2019-01-11T15:05:01.889Z,0.02
2019-01-11T15:05:42.411Z,0.07
2019-01-11T15:06:22.936Z,-0.1
2019-01-11T15:07:03.711Z,-0.18
2019-01-11T15:07:44.236Z,-0.15
2019-01-11T15:08:24.758Z,-0.18
2019-01-11T15:09:05.281Z,-0.25
2019-01-11T15:09:45.800Z,-0.31
2019-01-11T15:10:26.320Z,-0.22
2019-01-11T15:11:06.855Z,-0.23
2019-01-11T15:11:47.369Z,-0.22
2019-01-11T15:12:27.889Z,-0.31
2019-01-11T15:13:08.418Z,-0.29
2019-01-11T15:13:49.132Z,-0.26
2019-01-11T15:14:29.461Z,-0.29
2019-01-11T15:15:09.981Z,-0.31
2019-01-11T15:15:50.501Z,-0.39
2019-01-11T15:16:31.019Z,-0.42
2019-01-11T15:17:11.544Z,-0.31
2019-01-11T15:17:52.063Z,-0.33
2019-01-11T15:18:32.585Z,-0.36
2019-01-11T15:19:14.087Z,-0.37
2019-01-11T15:19:53.636Z,-0.46
2019-01-11T15:20:34.158Z,-0.42
2019-01-11T15:21:14.676Z,-0.4
2019-01-11T15:21:55.192Z,-0.46
2019-01-11T15:22:35.710Z,-0.34
2019-01-11T15:23:16.234Z,-0.37
2019-01-11T15:23:56.753Z,-0.42
2019-01-11T15:24:37.281Z,-0.42
2019-01-11T15:25:17.796Z,-0.36
2019-01-11T15:25:58.341Z,-0.44
2019-01-11T15:26:38.855Z,-0.42
2019-01-11T15:27:19.374Z,-0.36
2019-01-11T15:27:59.897Z,-0.47
2019-01-11T15:28:40.422Z,-0.46
2019-01-11T15:29:20.942Z,-0.51
2019-01-11T15:30:01.474Z,-0.43
2019-01-11T15:30:42.024Z,-0.47
2019-01-11T15:31:22.539Z,-0.51
2019-01-11T15:32:03.054Z,-0.47
2019-01-11T15:32:43.575Z,-0.52
2019-01-11T15:33:24.088Z,-0.52
2019-01-11T15:34:04.605Z,-0.52
2019-01-11T15:34:45.133Z,-0.54
2019-01-11T15:35:25.680Z,-0.61
2019-01-11T15:36:06.208Z,-0.58
2019-01-11T15:36:46.745Z,-0.57
2019-01-11T15:37:27.260Z,-0.55
2019-01-11T15:38:07.775Z,-0.55
2019-01-11T15:38:48.303Z,-0.62
2019-01-11T15:39:28.828Z,-0.61
2019-01-11T15:40:09.357Z,-0.55
2019-01-11T15:40:49.878Z,-0.58
2019-01-11T15:41:30.406Z,-0.54
2019-01-11T15:42:10.974Z,-0.58
2019-01-11T15:42:51.446Z,-0.62